Monument Lake Park, Colorado
Current Conditions -  °F | °C
As of 8:52 AM on Friday 24 Oct 2014 (Local Time) from KVTP Reporting Station
Clear Clear  
Wind Chill:   Ceiling: Unl
Heat Index:   Visibility: 10mi
Dew Point: -2°   Wind: 8mph
Humidity: 57%   Direction: 180°S
Pressure: 30.52"   Gusts: 16mph
Location:  37.1566°N, 104.956°W
Report Text: KVTP 241452Z AUTO 18007G14KT 110V230 10SM CLR 06/M02 A3052 RMK AO2
Loading
Personal Weather Stations






























Interactive Weather Map
Tropical Storm Tracking
New forecast layout! Learn more

10-Day Weather Forecast

Advertisements
Track Severe Weather on mobile